METAR Data
IDs: Format: Raw Decoded Include TAF

Data at: 1620 UTC 21 Sep 2018

KHPN 211556Z 17007KT 10SM SCT024 BKN031 20/16 A3021 RMK AO2 SLP226 T02000156
KHPN 211456Z 16007KT 10SM FEW020 OVC034 19/16 A3023 RMK AO2 SLP234 60000 T01940156 58010
KHPN 211356Z 17006KT 10SM SCT015 BKN030 19/15 A3025 RMK AO2 SLP239 T01940150
KHPN 211256Z 16007KT 10SM FEW010 SCT027 19/15 A3026 RMK AO2 DZB20E53 SLP242 P0000 T01890150
KHPN 211156Z 17004KT 10SM SCT020 BKN027 18/15 A3026 RMK AO2 SLP244 60000 T01830150 10183 20178 51005
KHPN 211056Z 15006KT 10SM BKN023 18/16 A3026 RMK AO2 SLP243 T01830156
KHPN 210956Z 15006KT 10SM BKN016 BKN021 18/16 A3025 RMK AO2 DZB35E52 SLP242 P0000 T01780156
KHPN 210856Z 16006KT 10SM FEW017 BKN028 18/16 A3025 RMK AO2 SLP239 T01830156 55001
KHPN 210756Z 14006KT 10SM BKN025 18/16 A3024 RMK AO2 SLP238 T01780156
KHPN 210656Z 14007KT 10SM SCT016 BKN022 BKN040 18/16 A3024 RMK AO2 SLP238 T01830156
KHPN 210556Z 15006KT 10SM FEW020 BKN038 18/15 A3025 RMK AO2 SLP241 T01780150 10189 20178 58003
KHPN 210456Z 16007KT 10SM FEW015 BKN031 18/15 A3026 RMK AO2 SLP245 T01830150 402170161
KHPN 210356Z 15008KT 10SM BKN017 OVC021 18/16 A3026 RMK AO2 SLP245 T01830156
KHPN 210256Z 15004KT 10SM SCT025 18/16 A3026 RMK AO2 SLP244 T01830156 51008
KHPN 210156Z 15006KT 10SM FEW010 BKN050 18/15 A3025 RMK AO2 SLP242 T01780150
KHPN 210056Z 15004KT 10SM FEW010 BKN045 18/16 A3025 RMK AO2 SLP243 T01830156
KHPN 202356Z 17004KT 10SM FEW010 BKN038 19/16 A3024 RMK AO2 SLP236 T01890156 10217 20183 50006
KHPN 202256Z 16005KT 10SM FEW015 BKN040 19/16 A3024 RMK AO2 SLP237 T01940156
KHPN 202156Z 13005KT 10SM BKN040 21/12 A3023 RMK AO2 SLP233 T02060122
KHPN 202056Z 11006KT 10SM SCT050 21/12 A3022 RMK AO2 SLP229 T02110122 56009
KHPN 201956Z 19007KT 10SM FEW026 SCT050 21/12 A3022 RMK AO2 SLP230 T02110122
KHPN 201856Z 00000KT 10SM FEW026 BKN050 21/13 A3022 RMK AO2 SLP230 T02110128
KHPN 201756Z 00000KT 10SM SCT038 BKN050 20/13 A3024 RMK AO2 SLP238 T02000128 10200 20161 58001
KHPN 201656Z 13003KT 10SM FEW025 BKN037 19/13 A3024 RMK AO2 SLP238 T01940128
KHPN 201556Z 00000KT 10SM FEW020 BKN035 19/12 A3025 RMK AO2 SLP241 T01890122
KHPN 201456Z 08003KT 10SM FEW020 BKN033 18/13 A3025 RMK AO2 SLP239 T01780128 51016
KHPN 201356Z 07005KT 10SM FEW020 BKN031 17/13 A3024 RMK AO2 SLP235 T01720128
KHPN 201256Z 07005KT 10SM BKN030 17/13 A3021 RMK AO2 SLP228 T01670128
KHPN 201156Z 05004KT 10SM BKN029 16/13 A3020 RMK AO2 SLP223 60000 T01610128 10178 20161 53025
KHPN 201056Z 08005KT 10SM FEW015 BKN026 OVC042 16/12 A3016 RMK AO2 DZE26 SLP211 P0000 T01610122
KHPN 200956Z 08007KT 10SM -DZ FEW008 BKN020 16/13 A3014 RMK AO2 DZB38 SLP203 P0000 T01610128
KHPN 200856Z 10004KT 10SM FEW015 BKN020 17/13 A3012 RMK AO2 SLP196 T01670133 53007
KHPN 200756Z 10006KT 10SM BKN015 OVC023 17/14 A3011 RMK AO2 SLP190 T01720139
KHPN 200656Z 10005KT 10SM OVC015 17/15 A3010 RMK AO2 SLP188 T01720150
KHPN 200556Z 10006KT 10SM BKN013 18/14 A3010 RMK AO2 SLP189 T01780144 10206 20178 53011
KHPN 200456Z 10006KT 10SM BKN013 18/16 A3008 RMK AO2 SLP182 T01830156 402670183